createdAt,value
2019-01-22T00:00:43.759Z,66.87
2019-01-22T00:03:15.324Z,66.64
2019-01-22T00:05:46.964Z,66.25
2019-01-22T00:08:18.486Z,65.93
2019-01-22T00:10:50.206Z,65.62
2019-01-22T00:13:21.762Z,65.42
2019-01-22T00:15:53.872Z,65.53
2019-01-22T00:18:25.468Z,65.36
2019-01-22T00:20:57.086Z,64.92
2019-01-22T00:23:28.970Z,64.90
2019-01-22T00:26:00.524Z,64.93
2019-01-22T00:28:32.050Z,64.87
2019-01-22T00:31:03.529Z,64.76
2019-01-22T00:33:35.038Z,64.72
2019-01-22T00:36:06.534Z,64.67
2019-01-22T00:38:38.148Z,64.47
2019-01-22T00:41:09.622Z,64.62
2019-01-22T00:43:41.139Z,64.40
2019-01-22T00:46:12.881Z,64.49
2019-01-22T00:48:44.466Z,64.66
2019-01-22T00:51:16.079Z,64.78
2019-01-22T00:53:48.966Z,64.53
2019-01-22T00:56:20.602Z,64.33
2019-01-22T00:58:52.137Z,64.25
2019-01-22T01:01:23.831Z,64.23
2019-01-22T01:03:55.329Z,64.30
2019-01-22T01:06:28.475Z,64.21
2019-01-22T01:09:00.765Z,64.12
2019-01-22T01:11:34.244Z,64.31
2019-01-22T01:14:06.249Z,64.36
2019-01-22T01:16:38.067Z,64.44
2019-01-22T01:19:09.543Z,64.36
2019-01-22T01:21:41.261Z,64.14
2019-01-22T01:24:13.039Z,63.96
2019-01-22T01:26:44.651Z,63.87
2019-01-22T01:29:16.195Z,63.75
2019-01-22T01:31:48.082Z,63.70
2019-01-22T01:34:19.595Z,63.70
2019-01-22T01:36:51.342Z,63.69
2019-01-22T01:39:23.041Z,63.47
2019-01-22T01:41:54.643Z,63.42
2019-01-22T01:44:26.172Z,63.33
2019-01-22T01:46:57.704Z,63.30
2019-01-22T01:49:29.207Z,63.35
2019-01-22T01:52:00.841Z,63.43
2019-01-22T01:54:32.291Z,63.32
2019-01-22T01:57:03.956Z,63.33
2019-01-22T01:59:35.431Z,63.09
2019-01-22T02:02:07.167Z,63.21
2019-01-22T02:04:38.620Z,62.96
2019-01-22T02:07:10.642Z,63.03
2019-01-22T02:09:42.580Z,63.01
2019-01-22T02:12:14.696Z,63.03
2019-01-22T02:14:55.809Z,63.13
2019-01-22T02:18:36.501Z,63.21
2019-01-22T02:22:07.787Z,63.23
2019-01-22T02:25:12.752Z,63.31
2019-01-22T02:28:44.471Z,63.37
2019-01-22T02:32:01.228Z,63.21
2019-01-22T02:35:18.336Z,63.38
2019-01-22T02:39:08.710Z,63.24
2019-01-22T02:42:11.711Z,63.31
2019-01-22T02:45:31.200Z,63.44
2019-01-22T02:49:05.092Z,63.61
2019-01-22T02:52:22.205Z,63.52
2019-01-22T02:55:25.041Z,63.63
2019-01-22T02:59:02.257Z,63.79
2019-01-22T03:02:37.014Z,63.98
2019-01-22T03:05:51.466Z,63.55
2019-01-22T03:09:29.675Z,63.67
2019-01-22T03:12:45.338Z,63.79
2019-01-22T03:16:14.897Z,63.83
2019-01-22T03:19:24.553Z,63.95
2019-01-22T03:23:08.112Z,64.23
2019-01-22T03:26:22.009Z,64.41
2019-01-22T03:29:18.510Z,64.35
2019-01-22T03:32:07.296Z,64.40
2019-01-22T03:35:40.868Z,64.43
2019-01-22T03:38:53.420Z,64.53
2019-01-22T03:42:28.929Z,64.58
2019-01-22T03:45:52.928Z,64.59
2019-01-22T03:49:22.092Z,64.80
2019-01-22T03:52:24.819Z,64.73
2019-01-22T03:55:40.656Z,64.77
2019-01-22T03:58:14.455Z,64.74
2019-01-22T04:01:16.836Z,64.53
2019-01-22T04:03:48.799Z,64.82
2019-01-22T04:06:43.584Z,64.81
2019-01-22T04:10:12.695Z,64.56
2019-01-22T04:12:44.346Z,64.58
2019-01-22T04:15:19.385Z,64.75
2019-01-22T04:17:50.827Z,64.46
2019-01-22T04:20:22.544Z,64.70
2019-01-22T04:23:17.984Z,64.85
2019-01-22T04:26:22.439Z,64.88
2019-01-22T04:29:26.788Z,64.88
2019-01-22T04:32:29.064Z,64.98
2019-01-22T04:35:43.507Z,64.73
2019-01-22T04:39:05.659Z,65.02
2019-01-22T04:42:08.368Z,65.11
2019-01-22T04:45:50.916Z,65.07
2019-01-22T04:49:14.335Z,65.02
2019-01-22T04:52:35.588Z,65.07
2019-01-22T04:56:01.602Z,65.12
2019-01-22T04:59:40.387Z,65.09
2019-01-22T05:02:43.538Z,65.13
2019-01-22T05:05:41.360Z,65.21
2019-01-22T05:09:10.363Z,65.19
2019-01-22T05:12:40.898Z,64.76
2019-01-22T05:16:33.539Z,65.01
2019-01-22T05:20:12.340Z,65.15
2019-01-22T05:23:21.037Z,64.79
2019-01-22T05:26:53.757Z,65.04
2019-01-22T05:30:25.019Z,65.15
2019-01-22T05:33:55.335Z,65.28
2019-01-22T05:37:35.580Z,65.24
2019-01-22T05:41:09.790Z,65.05
2019-01-22T05:44:15.090Z,65.14
2019-01-22T05:47:43.874Z,64.93
2019-01-22T05:50:54.820Z,65.07
2019-01-22T05:54:13.440Z,65.27
2019-01-22T05:57:13.361Z,65.41
2019-01-22T06:00:33.650Z,65.32
2019-01-22T06:03:43.106Z,65.31
2019-01-22T06:07:02.267Z,65.14
2019-01-22T06:10:40.096Z,64.89
2019-01-22T06:14:13.992Z,65.07
2019-01-22T06:17:50.676Z,65.42
2019-01-22T06:21:43.536Z,64.99
2019-01-22T06:24:45.729Z,65.13
2019-01-22T06:28:11.569Z,65.33
2019-01-22T06:31:26.443Z,65.34
2019-01-22T06:35:04.135Z,65.12
2019-01-22T06:38:06.022Z,65.26
2019-01-22T06:41:49.746Z,64.92
2019-01-22T06:45:36.662Z,65.02
2019-01-22T06:48:33.710Z,65.23
2019-01-22T06:52:14.036Z,64.51
2019-01-22T06:55:24.216Z,64.29
2019-01-22T06:58:49.330Z,64.27
2019-01-22T07:01:47.025Z,64.10
2019-01-22T07:05:09.685Z,63.52
2019-01-22T07:09:10.379Z,63.49
2019-01-22T07:12:33.420Z,63.31
2019-01-22T07:16:15.570Z,63.39
2019-01-22T07:19:36.334Z,63.28
2019-01-22T07:23:00.682Z,62.97
2019-01-22T07:26:30.044Z,62.94
2019-01-22T07:29:37.874Z,62.69
2019-01-22T07:32:47.642Z,62.64
2019-01-22T07:35:52.036Z,61.88
2019-01-22T07:38:51.995Z,61.49
2019-01-22T07:42:27.532Z,61.33
2019-01-22T07:46:00.114Z,60.94
2019-01-22T07:48:43.256Z,61.04
2019-01-22T07:51:31.385Z,60.80
2019-01-22T07:55:23.971Z,61.04
2019-01-22T07:58:52.994Z,60.43
2019-01-22T08:02:33.822Z,60.62
2019-01-22T08:05:38.100Z,60.27
2019-01-22T08:08:55.280Z,60.38
2019-01-22T08:12:13.851Z,60.38
2019-01-22T08:15:45.716Z,60.11
2019-01-22T08:19:35.639Z,60.22
2019-01-22T08:23:03.720Z,60.06
2019-01-22T08:26:26.365Z,60.29
2019-01-22T08:29:33.821Z,59.96
2019-01-22T08:32:36.410Z,59.76
2019-01-22T08:36:03.395Z,59.47
2019-01-22T08:39:00.614Z,59.47
2019-01-22T08:42:42.300Z,58.99
2019-01-22T08:46:12.922Z,58.68
2019-01-22T08:49:53.923Z,58.36
2019-01-22T08:52:50.857Z,58.37
2019-01-22T08:56:09.748Z,57.67
2019-01-22T08:59:24.005Z,57.57
2019-01-22T09:02:51.574Z,57.02
2019-01-22T09:06:03.921Z,56.28
2019-01-22T09:09:05.538Z,56.10
2019-01-22T09:12:20.965Z,55.86
2019-01-22T09:15:36.175Z,55.68
2019-01-22T09:19:03.049Z,55.45
2019-01-22T09:22:18.522Z,55.08
2019-01-22T09:25:00.437Z,54.28
2019-01-22T09:28:38.920Z,54.23
2019-01-22T09:32:17.871Z,53.84
2019-01-22T09:35:31.052Z,53.71
2019-01-22T09:38:07.038Z,53.35
2019-01-22T09:40:41.179Z,53.36
2019-01-22T09:43:12.735Z,53.25
2019-01-22T09:45:44.287Z,52.91
2019-01-22T09:48:15.835Z,53.48
2019-01-22T09:50:47.312Z,52.98
2019-01-22T09:53:18.839Z,52.98
2019-01-22T09:55:50.471Z,53.03
2019-01-22T09:58:21.956Z,52.98
2019-01-22T10:00:53.544Z,52.78
2019-01-22T10:03:25.325Z,53.09
2019-01-22T10:05:57.136Z,53.18
2019-01-22T10:08:28.701Z,52.96
2019-01-22T10:11:01.737Z,52.89
2019-01-22T10:13:34.446Z,52.74
2019-01-22T10:16:05.991Z,52.27
2019-01-22T10:18:37.564Z,52.21
2019-01-22T10:21:09.075Z,52.25
2019-01-22T10:23:46.846Z,51.93
2019-01-22T10:26:17.131Z,51.35
2019-01-22T10:28:48.679Z,50.78
2019-01-22T10:31:20.326Z,50.03
2019-01-22T10:33:51.800Z,49.78
2019-01-22T10:36:24.106Z,49.39
2019-01-22T10:38:55.597Z,48.50
2019-01-22T10:41:27.230Z,48.07
2019-01-22T10:43:58.767Z,47.72
2019-01-22T10:46:32.780Z,47.28
2019-01-22T10:49:04.315Z,47.08
2019-01-22T10:51:35.914Z,47.54
2019-01-22T10:54:07.467Z,47.82
2019-01-22T10:56:39.318Z,46.76
2019-01-22T10:59:10.826Z,46.80
2019-01-22T11:01:42.628Z,47.09
2019-01-22T11:04:14.228Z,46.74
2019-01-22T11:06:45.821Z,46.65
2019-01-22T11:09:17.366Z,46.40
2019-01-22T11:11:49.534Z,46.50
2019-01-22T11:14:20.974Z,46.46
2019-01-22T11:16:52.694Z,46.04
2019-01-22T11:19:27.752Z,45.95
2019-01-22T11:21:57.674Z,46.02
2019-01-22T11:24:30.403Z,46.19
2019-01-22T11:27:02.582Z,45.86
2019-01-22T11:29:34.100Z,46.00
2019-01-22T11:32:05.674Z,45.67
2019-01-22T11:34:37.241Z,45.78
2019-01-22T11:37:08.760Z,45.71
2019-01-22T11:39:40.219Z,45.58
2019-01-22T11:42:12.090Z,45.49
2019-01-22T11:44:43.677Z,45.46
2019-01-22T11:47:15.286Z,45.61
2019-01-22T11:49:46.865Z,45.69
2019-01-22T11:52:18.465Z,45.85
2019-01-22T11:54:50.159Z,45.94
2019-01-22T11:57:21.977Z,46.10
2019-01-22T11:59:53.460Z,46.17
2019-01-22T12:02:31.783Z,46.08
2019-01-22T12:04:58.421Z,46.38
2019-01-22T12:07:30.161Z,46.29
2019-01-22T12:10:01.698Z,46.05
2019-01-22T12:12:33.294Z,45.26
2019-01-22T12:15:05.977Z,44.56
2019-01-22T12:17:38.223Z,43.84
2019-01-22T12:20:15.445Z,44.43
2019-01-22T12:22:48.617Z,44.42
2019-01-22T12:25:20.094Z,43.92
2019-01-22T12:27:53.476Z,44.07
2019-01-22T12:30:28.797Z,44.64
2019-01-22T12:33:00.676Z,43.88
2019-01-22T12:35:32.279Z,42.84
2019-01-22T12:38:04.080Z,41.17
2019-01-22T12:40:35.643Z,40.75
2019-01-22T12:43:08.103Z,39.76
2019-01-22T12:45:40.795Z,39.88
2019-01-22T12:48:12.753Z,38.37
2019-01-22T12:50:44.245Z,38.36
2019-01-22T12:53:16.354Z,39.08
2019-01-22T12:55:47.902Z,40.20
2019-01-22T12:58:20.725Z,41.11
2019-01-22T13:00:52.200Z,41.87
2019-01-22T13:03:23.794Z,41.48
2019-01-22T13:06:05.715Z,40.99
2019-01-22T13:08:37.627Z,40.16
2019-01-22T13:11:09.142Z,40.91
2019-01-22T13:13:41.097Z,40.86
2019-01-22T13:16:12.660Z,40.85
2019-01-22T13:18:44.418Z,41.13
2019-01-22T13:21:17.056Z,40.83
2019-01-22T13:23:48.938Z,40.34
2019-01-22T13:26:20.435Z,40.08
2019-01-22T13:28:52.066Z,39.93
2019-01-22T13:31:23.766Z,40.31
2019-01-22T13:33:57.510Z,40.72
2019-01-22T13:36:30.067Z,40.43
2019-01-22T13:39:01.985Z,40.30
2019-01-22T13:41:33.923Z,40.24
2019-01-22T13:44:05.734Z,40.01
2019-01-22T13:46:37.211Z,40.30
2019-01-22T13:49:08.874Z,40.60
2019-01-22T13:51:40.377Z,40.56
2019-01-22T13:54:12.024Z,40.71
2019-01-22T13:56:43.588Z,40.31
2019-01-22T13:59:15.559Z,40.30
2019-01-22T14:01:47.091Z,41.13
2019-01-22T14:04:18.932Z,41.51
2019-01-22T14:06:50.411Z,42.37
2019-01-22T14:09:22.027Z,42.86
2019-01-22T14:11:53.495Z,43.35
2019-01-22T14:14:25.394Z,43.99
2019-01-22T14:16:56.864Z,44.77
2019-01-22T14:19:28.577Z,45.51
2019-01-22T14:22:00.200Z,45.85
2019-01-22T14:24:32.095Z,46.26
2019-01-22T14:27:03.659Z,46.84
2019-01-22T14:29:35.549Z,47.62
2019-01-22T14:32:07.055Z,47.98
2019-01-22T14:34:38.832Z,48.40
2019-01-22T14:37:10.535Z,48.90
2019-01-22T14:39:42.235Z,49.36
2019-01-22T14:42:13.790Z,49.60
2019-01-22T14:44:46.027Z,49.75
2019-01-22T14:47:17.766Z,50.42
2019-01-22T14:49:49.402Z,50.71
2019-01-22T14:52:21.301Z,50.93
2019-01-22T14:54:52.828Z,51.48
2019-01-22T14:57:24.300Z,51.68
2019-01-22T14:59:56.193Z,51.79
2019-01-22T15:02:27.691Z,52.05
2019-01-22T15:04:59.409Z,52.61
2019-01-22T15:07:30.975Z,52.70
2019-01-22T15:10:02.566Z,53.07
2019-01-22T15:12:34.122Z,53.29
2019-01-22T15:15:07.255Z,53.52
2019-01-22T15:17:38.862Z,53.65
2019-01-22T15:20:15.393Z,53.72
2019-01-22T15:22:49.379Z,53.83
2019-01-22T15:25:21.053Z,53.69
2019-01-22T15:27:52.597Z,53.95
2019-01-22T15:30:35.831Z,54.01
2019-01-22T15:33:08.711Z,54.26
2019-01-22T15:35:40.508Z,54.46
2019-01-22T15:38:12.014Z,54.65
2019-01-22T15:40:44.013Z,54.79
2019-01-22T15:43:15.604Z,54.70
2019-01-22T15:45:49.584Z,54.79
2019-01-22T15:48:21.173Z,55.04
2019-01-22T15:50:52.957Z,55.17
2019-01-22T15:53:24.431Z,55.33
2019-01-22T15:55:56.171Z,55.37
2019-01-22T15:58:27.761Z,55.51
2019-01-22T16:00:59.918Z,55.68
2019-01-22T16:03:31.466Z,55.76
2019-01-22T16:06:06.311Z,55.88
2019-01-22T16:08:37.792Z,55.96
2019-01-22T16:11:09.727Z,56.13
2019-01-22T16:13:41.597Z,56.30
2019-01-22T16:16:13.423Z,56.49
2019-01-22T16:18:44.952Z,56.41
2019-01-22T16:21:16.551Z,56.55
2019-01-22T16:23:48.136Z,56.71
2019-01-22T16:26:19.804Z,56.77
2019-01-22T16:28:51.280Z,56.85
2019-01-22T16:31:23.244Z,57.00
2019-01-22T16:33:54.768Z,57.06
2019-01-22T16:36:26.435Z,57.24
2019-01-22T16:38:58.204Z,57.30
2019-01-22T16:41:29.948Z,57.40
2019-01-22T16:44:01.553Z,57.48
2019-01-22T16:46:33.723Z,57.53
2019-01-22T16:49:05.354Z,57.61
2019-01-22T16:51:37.094Z,57.49
2019-01-22T16:54:08.762Z,57.67
2019-01-22T16:56:40.604Z,57.82
2019-01-22T16:59:12.166Z,57.85
2019-01-22T17:01:44.280Z,57.76
2019-01-22T17:04:17.656Z,57.62
2019-01-22T17:06:49.536Z,57.78
2019-01-22T17:09:25.306Z,57.61
2019-01-22T17:11:54.584Z,57.81
2019-01-22T17:14:26.145Z,57.74
2019-01-22T17:16:58.310Z,57.75
2019-01-22T17:19:29.905Z,57.60
2019-01-22T17:22:01.709Z,57.89
2019-01-22T17:24:33.263Z,58.13
2019-01-22T17:27:07.327Z,58.06
2019-01-22T17:29:38.831Z,58.14
2019-01-22T17:32:24.540Z,58.14
2019-01-22T17:34:57.840Z,58.17
2019-01-22T17:37:29.704Z,58.21
2019-01-22T17:40:01.583Z,58.44
2019-01-22T17:42:33.215Z,58.45
2019-01-22T17:45:05.465Z,58.62
2019-01-22T17:47:37.554Z,58.67
2019-01-22T17:50:11.422Z,58.73
2019-01-22T17:52:43.118Z,58.91
2019-01-22T17:55:14.763Z,58.85
2019-01-22T17:57:46.994Z,58.93
2019-01-22T18:00:21.257Z,59.19
2019-01-22T18:02:53.234Z,59.12
2019-01-22T18:05:25.736Z,59.28
2019-01-22T18:07:57.389Z,59.47
2019-01-22T18:10:29.013Z,59.52
2019-01-22T18:13:00.993Z,59.65
2019-01-22T18:15:32.703Z,59.72
2019-01-22T18:18:04.736Z,59.76
2019-01-22T18:20:36.220Z,59.92
2019-01-22T18:23:07.946Z,59.99
2019-01-22T18:25:39.505Z,60.05
2019-01-22T18:28:11.315Z,60.08
2019-01-22T18:30:43.381Z,60.16
2019-01-22T18:33:16.650Z,60.20
2019-01-22T18:35:48.354Z,60.47
2019-01-22T18:38:20.649Z,60.64
2019-01-22T18:40:52.230Z,60.62
2019-01-22T18:43:24.029Z,60.61
2019-01-22T18:45:55.546Z,60.72
2019-01-22T18:48:27.234Z,60.75
2019-01-22T18:50:58.870Z,60.73
2019-01-22T18:53:30.614Z,60.80
2019-01-22T18:56:02.451Z,60.85
2019-01-22T18:58:34.244Z,60.97
2019-01-22T19:01:05.830Z,61.07
2019-01-22T19:03:37.788Z,61.19
2019-01-22T19:06:09.397Z,61.18
2019-01-22T19:08:41.111Z,61.35
2019-01-22T19:11:12.781Z,61.34
2019-01-22T19:13:44.420Z,61.51
2019-01-22T19:16:16.254Z,61.47
2019-01-22T19:18:48.643Z,61.58
2019-01-22T19:21:20.201Z,61.52
2019-01-22T19:23:51.965Z,61.46
2019-01-22T19:26:23.672Z,61.52
2019-01-22T19:28:55.345Z,61.46
2019-01-22T19:31:27.241Z,61.41
2019-01-22T19:33:59.077Z,61.28
2019-01-22T19:36:30.752Z,61.18
2019-01-22T19:39:02.515Z,61.15
2019-01-22T19:41:34.102Z,61.15
2019-01-22T19:44:05.767Z,61.22
2019-01-22T19:46:37.738Z,61.25
2019-01-22T19:49:09.769Z,61.32
2019-01-22T19:51:41.757Z,61.19
2019-01-22T19:54:13.682Z,61.15
2019-01-22T19:56:45.238Z,61.32
2019-01-22T19:59:17.104Z,61.34
2019-01-22T20:01:48.755Z,61.36
2019-01-22T20:04:20.877Z,61.21
2019-01-22T20:06:52.655Z,61.40
2019-01-22T20:09:24.418Z,61.29
2019-01-22T20:11:55.962Z,61.64
2019-01-22T20:14:27.869Z,61.58
2019-01-22T20:16:59.603Z,61.84
2019-01-22T20:19:32.023Z,61.75
2019-01-22T20:22:04.076Z,61.86
2019-01-22T20:24:36.268Z,61.95
2019-01-22T20:27:08.144Z,62.03
2019-01-22T20:29:39.944Z,62.17
2019-01-22T20:32:11.469Z,62.31
2019-01-22T20:34:43.707Z,62.40
2019-01-22T20:37:15.545Z,62.46
2019-01-22T20:39:47.605Z,62.47
2019-01-22T20:42:19.497Z,62.48
2019-01-22T20:44:51.331Z,62.38
2019-01-22T20:47:22.927Z,62.54
2019-01-22T20:49:55.176Z,62.64
2019-01-22T20:52:26.773Z,62.77
2019-01-22T20:54:58.550Z,62.73
2019-01-22T20:57:30.270Z,62.76
2019-01-22T21:00:02.193Z,62.79
2019-01-22T21:02:33.772Z,62.93
2019-01-22T21:05:09.581Z,63.01
2019-01-22T21:07:41.337Z,63.17
2019-01-22T21:10:18.531Z,63.39
2019-01-22T21:12:50.163Z,63.51
2019-01-22T21:15:21.764Z,63.58
2019-01-22T21:17:53.563Z,63.61
2019-01-22T21:20:25.642Z,63.70
2019-01-22T21:22:57.512Z,63.84
2019-01-22T21:25:29.705Z,63.91
2019-01-22T21:28:02.049Z,64.04
2019-01-22T21:30:38.513Z,64.14
2019-01-22T21:33:11.374Z,64.19
2019-01-22T21:35:43.081Z,64.22
2019-01-22T21:38:14.636Z,64.32
2019-01-22T21:40:46.235Z,64.32
2019-01-22T21:43:19.376Z,64.22
2019-01-22T21:45:52.233Z,64.12
2019-01-22T21:48:23.918Z,64.04
2019-01-22T21:50:55.952Z,64.20
2019-01-22T21:53:27.618Z,64.13
2019-01-22T21:55:59.613Z,64.08
2019-01-22T21:58:31.161Z,64.24
2019-01-22T22:01:04.367Z,64.30
2019-01-22T22:03:35.851Z,64.23
2019-01-22T22:06:07.691Z,64.12
2019-01-22T22:08:39.175Z,63.95
2019-01-22T22:11:11.182Z,63.89
2019-01-22T22:13:42.705Z,63.88
2019-01-22T22:16:14.509Z,63.89
2019-01-22T22:18:46.310Z,63.73
2019-01-22T22:21:18.127Z,63.73
2019-01-22T22:23:49.703Z,63.86
2019-01-22T22:26:21.440Z,63.92
2019-01-22T22:28:53.001Z,63.73
2019-01-22T22:31:27.303Z,63.73
2019-01-22T22:33:58.839Z,63.96
2019-01-22T22:36:30.362Z,64.21
2019-01-22T22:39:01.926Z,64.52
2019-01-22T22:41:34.063Z,64.67
2019-01-22T22:44:05.653Z,64.83
2019-01-22T22:46:37.241Z,65.14
2019-01-22T22:49:08.787Z,65.26
2019-01-22T22:51:40.659Z,65.54
2019-01-22T22:54:12.219Z,65.26
2019-01-22T22:56:44.079Z,65.49
2019-01-22T22:59:15.735Z,65.65
2019-01-22T23:01:47.696Z,65.40
2019-01-22T23:04:19.183Z,65.45
2019-01-22T23:06:51.028Z,66.06
2019-01-22T23:09:22.548Z,65.69
2019-01-22T23:11:54.160Z,65.72
2019-01-22T23:14:25.756Z,65.88
2019-01-22T23:16:57.293Z,65.76
2019-01-22T23:19:28.733Z,65.64
2019-01-22T23:22:00.639Z,65.71
2019-01-22T23:24:32.098Z,65.67
2019-01-22T23:27:03.672Z,65.60
2019-01-22T23:29:35.177Z,65.63
2019-01-22T23:32:06.789Z,65.58
2019-01-22T23:34:38.268Z,65.67
2019-01-22T23:37:10.046Z,65.66
2019-01-22T23:39:41.615Z,65.55
2019-01-22T23:42:13.167Z,65.62
2019-01-22T23:44:44.644Z,65.38
2019-01-22T23:47:16.161Z,65.39
2019-01-22T23:49:48.794Z,65.13
2019-01-22T23:52:20.829Z,65.10
2019-01-22T23:54:52.744Z,65.17
2019-01-22T23:57:24.205Z,64.95
2019-01-22T23:59:55.708Z,64.84
